createdAt,value
2018-06-23T00:09:07.009Z,0
2018-06-23T00:19:21.014Z,0
2018-06-23T00:29:36.578Z,0
2018-06-23T00:39:51.815Z,0
2018-06-23T00:50:06.540Z,0
2018-06-23T01:00:20.402Z,0
2018-06-23T01:10:34.128Z,0
2018-06-23T01:20:49.315Z,0
2018-06-23T01:31:03.849Z,0
2018-06-23T01:41:19.251Z,0
2018-06-23T01:51:33.358Z,0
2018-06-23T02:01:47.396Z,0
2018-06-23T02:12:02.122Z,0
2018-06-23T02:22:16.582Z,0
2018-06-23T02:32:31.304Z,4
2018-06-23T02:42:45.058Z,16
2018-06-23T02:53:00.633Z,60
2018-06-23T03:03:15.412Z,132
2018-06-23T03:13:30.039Z,220
2018-06-23T03:23:44.241Z,704
2018-06-23T03:33:59.703Z,1056
2018-06-23T03:44:15.174Z,756
2018-06-23T03:54:30.560Z,1160
2018-06-23T04:04:46.037Z,1548
2018-06-23T04:15:00.671Z,1252
2018-06-23T04:25:15.432Z,1384
2018-06-23T04:35:30.542Z,2492
2018-06-23T04:45:44.489Z,2816
2018-06-23T04:56:00.188Z,4712
2018-06-23T05:06:13.866Z,3920
2018-06-23T05:16:27.954Z,5208
2018-06-23T05:26:43.516Z,3588
2018-06-23T05:36:57.511Z,4236
2018-06-23T05:47:13.147Z,10120
2018-06-23T05:57:26.855Z,11916
2018-06-23T06:07:41.252Z,9600
2018-06-23T06:17:55.653Z,30528
2018-06-23T06:28:10.907Z,21216
2018-06-23T06:38:24.722Z,23744
2018-06-23T06:48:38.826Z,30080
2018-06-23T06:58:53.578Z,11040
2018-06-23T07:09:09.189Z,15112
2018-06-23T07:19:23.892Z,16160
2018-06-23T07:29:37.939Z,35680
2018-06-23T07:39:53.710Z,22464
2018-06-23T07:50:08.871Z,20544
2018-06-23T08:00:22.859Z,18752
2018-06-23T08:10:38.458Z,80512
2018-06-23T08:20:52.545Z,25152
2018-06-23T08:31:07.091Z,33600
2018-06-23T08:41:22.606Z,53024
2018-06-23T08:51:36.630Z,94560
2018-06-23T09:01:51.759Z,17632
2018-06-23T09:12:06.641Z,76832
2018-06-23T09:22:21.863Z,34528
2018-06-23T09:32:36.824Z,35072
2018-06-23T09:42:50.846Z,29984
2018-06-23T09:53:06.051Z,43552
2018-06-23T10:03:20.947Z,47872
2018-06-23T10:13:34.995Z,35744
2018-06-23T10:23:49.403Z,32928
2018-06-23T10:34:04.806Z,48672
2018-06-23T10:44:19.553Z,56864
2018-06-23T10:54:33.761Z,107488
2018-06-23T11:04:48.254Z,37952
2018-06-23T11:15:04.181Z,137536
2018-06-23T11:25:19.882Z,31808
2018-06-23T11:35:34.035Z,78336
2018-06-23T11:45:48.822Z,21024
2018-06-23T11:56:03.034Z,40256
2018-06-23T12:06:18.147Z,39008
2018-06-23T12:16:34.016Z,115936
2018-06-23T12:26:49.347Z,64800
2018-06-23T12:37:04.785Z,53280
2018-06-23T12:47:20.589Z,122848
2018-06-23T12:57:35.716Z,37728
2018-06-23T13:07:50.559Z,63200
2018-06-23T13:18:06.077Z,38112
2018-06-23T13:28:21.711Z,27872
2018-06-23T13:38:36.681Z,28224
2018-06-23T13:48:50.534Z,28160
2018-06-23T13:59:06.180Z,28320
2018-06-23T14:09:21.823Z,34592
2018-06-23T14:19:37.366Z,99616
2018-06-23T14:29:53.354Z,106272
2018-06-23T14:40:07.178Z,54048
2018-06-23T14:50:22.556Z,24288
2018-06-23T15:00:37.876Z,78464
2018-06-23T15:10:52.952Z,79552
2018-06-23T15:21:08.599Z,84640
2018-06-23T15:31:24.134Z,33984
2018-06-23T15:41:38.899Z,62176
2018-06-23T15:51:53.775Z,81440
2018-06-23T16:02:08.197Z,31008
2018-06-23T16:12:22.408Z,54048
2018-06-23T16:22:36.957Z,57408
2018-06-23T16:32:51.401Z,18624
2018-06-23T16:43:06.460Z,48384
2018-06-23T16:53:21.079Z,45344
2018-06-23T17:03:36.361Z,48640
2018-06-23T17:13:51.615Z,44000
2018-06-23T17:24:07.311Z,38112
2018-06-23T17:34:22.267Z,14652
2018-06-23T17:44:37.275Z,13952
2018-06-23T17:54:52.976Z,29728
2018-06-23T18:05:06.956Z,7252
2018-06-23T18:15:21.885Z,6004
2018-06-23T18:25:37.016Z,4928
2018-06-23T18:35:51.057Z,4108
2018-06-23T18:46:05.144Z,4708
2018-06-23T18:56:20.620Z,3760
2018-06-23T19:06:35.382Z,2568
2018-06-23T19:16:49.198Z,1576
2018-06-23T19:27:03.858Z,1012
2018-06-23T19:37:18.728Z,776
2018-06-23T19:47:33.278Z,472
2018-06-23T19:57:48.002Z,228
2018-06-23T20:08:03.445Z,92
2018-06-23T20:18:17.468Z,32
2018-06-23T20:28:32.326Z,12
2018-06-23T20:38:46.105Z,0
2018-06-23T20:49:01.583Z,0
2018-06-23T20:59:16.998Z,0
2018-06-23T21:09:30.762Z,0
2018-06-23T21:19:45.284Z,0
2018-06-23T21:29:59.374Z,0
2018-06-23T21:40:13.946Z,0
2018-06-23T21:50:28.153Z,0
2018-06-23T22:00:42.993Z,0
2018-06-23T22:10:57.105Z,0
2018-06-23T22:21:12.593Z,0
2018-06-23T22:31:26.926Z,0
2018-06-23T22:41:41.110Z,0
2018-06-23T22:51:54.964Z,0
2018-06-23T23:02:09.432Z,0
2018-06-23T23:12:24.087Z,0
2018-06-23T23:22:38.947Z,0
2018-06-23T23:32:53.766Z,0
2018-06-23T23:43:09.439Z,0
2018-06-23T23:53:23.600Z,0
